Time;durP1;ratioP1;P1;durP2;ratioP2;P2;SDS_P1;SDS_P2;PMS_P1;PMS_P2;Temp;Humidity;BMP_temperature;BMP_pressure;BME280_temperature;BME280_humidity;BME280_pressure;Samples;Min_cycle;Max_cycle;Signal;HPM_P1;HPM_P2
2023/01/04 00:02:21;;;;;;;6.22;5.35;;;7.30;96.90;;;;;;5116247;28;20239;-64
2023/01/04 00:04:48;;;;;;;5.80;5.10;;;7.30;97.00;;;;;;5115787;28;20207;-64
2023/01/04 00:07:15;;;;;;;6.25;4.88;;;7.20;96.90;;;;;;5115673;28;20228;-65
2023/01/04 00:09:42;;;;;;;8.80;6.72;;;7.20;96.30;;;;;;5115564;28;20230;-65
2023/01/04 00:12:09;;;;;;;11.25;6.68;;;7.10;96.20;;;;;;5116108;28;20200;-65
2023/01/04 00:14:36;;;;;;;10.95;6.07;;;7.00;96.50;;;;;;5115423;28;20706;-66
2023/01/04 00:17:05;;;;;;;8.90;5.90;;;7.00;96.60;;;;;;5115803;28;20188;-65
2023/01/04 00:19:32;;;;;;;5.47;4.78;;;6.90;96.60;;;;;;5115684;27;20600;-64
2023/01/04 00:21:59;;;;;;;8.57;5.50;;;6.80;96.50;;;;;;5115805;28;20214;-64
2023/01/04 00:24:26;;;;;;;6.78;4.30;;;6.70;96.60;;;;;;5115560;28;20185;-64
2023/01/04 00:26:53;;;;;;;6.18;4.60;;;6.70;96.80;;;;;;5115765;28;20193;-64
2023/01/04 00:29:20;;;;;;;5.78;4.80;;;6.60;97.10;;;;;;5115183;28;20189;-64
2023/01/04 00:31:48;;;;;;;7.50;5.30;;;6.50;97.10;;;;;;5115806;28;20249;-64
2023/01/04 00:34:18;;;;;;;5.65;4.57;;;6.50;97.50;;;;;;5114777;28;20248;-64
2023/01/04 00:36:45;;;;;;;5.10;4.45;;;6.50;97.20;;;;;;5115086;28;20220;-65
2023/01/04 00:39:15;;;;;;;7.72;4.82;;;6.50;96.90;;;;;;5115093;28;20225;-65
2023/01/04 00:41:43;;;;;;;7.50;4.75;;;6.40;96.90;;;;;;5115337;28;20577;-64
2023/01/04 00:44:12;;;;;;;8.07;5.47;;;6.30;97.00;;;;;;5114649;28;20570;-66
2023/01/04 00:46:40;;;;;;;6.43;4.25;;;6.30;96.50;;;;;;5114924;28;20754;-65
2023/01/04 00:49:09;;;;;;;7.47;5.47;;;6.30;96.80;;;;;;5115049;28;20192;-65
2023/01/04 00:51:39;;;;;;;9.57;6.05;;;6.20;96.30;;;;;;5114951;28;20176;-64
2023/01/04 00:54:08;;;;;;;6.53;4.50;;;6.20;96.40;;;;;;5115606;28;20216;-65
2023/01/04 00:56:35;;;;;;;6.28;5.07;;;6.10;96.60;;;;;;5114667;28;20214;-64
2023/01/04 00:59:03;;;;;;;6.35;5.05;;;6.10;96.70;;;;;;5115393;28;20559;-64
2023/01/04 01:01:32;;;;;;;7.88;6.18;;;6.10;96.70;;;;;;5115063;28;20184;-65
2023/01/04 01:04:00;;;;;;;5.40;3.40;;;6.00;96.70;;;;;;5115131;28;20241;-64
2023/01/04 01:06:30;;;;;;;5.70;4.30;;;6.00;97.10;;;;;;5111856;28;20184;-65
2023/01/04 01:08:59;;;;;;;7.78;4.70;;;5.90;97.20;;;;;;5114655;28;20666;-64
2023/01/04 01:11:26;;;;;;;7.18;4.25;;;5.70;97.20;;;;;;5114230;28;20266;-64
2023/01/04 01:13:54;;;;;;;5.50;3.78;;;5.60;97.10;;;;;;5115002;28;20234;-64
2023/01/04 01:16:23;;;;;;;7.00;4.68;;;5.60;96.70;;;;;;5114627;28;20279;-64
2023/01/04 01:18:50;;;;;;;5.90;4.18;;;5.50;96.70;;;;;;5115000;28;20193;-64
2023/01/04 01:21:19;;;;;;;6.35;4.35;;;5.50;96.90;;;;;;5114447;27;20230;-64
2023/01/04 01:23:46;;;;;;;5.20;3.75;;;5.50;96.90;;;;;;5114765;28;20189;-64
2023/01/04 01:26:17;;;;;;;5.13;3.40;;;5.40;97.20;;;;;;5114391;28;20713;-65
2023/01/04 01:28:45;;;;;;;5.20;3.65;;;5.40;97.00;;;;;;5114822;28;20188;-64
2023/01/04 01:31:14;;;;;;;10.75;3.45;;;5.30;96.70;;;;;;5114435;28;20192;-64
2023/01/04 01:33:43;;;;;;;4.28;2.85;;;5.30;96.10;;;;;;5114746;28;20303;-64
2023/01/04 01:36:11;;;;;;;4.03;3.28;;;5.20;96.00;;;;;;5114082;28;20216;-65
2023/01/04 01:38:39;;;;;;;6.45;4.15;;;5.20;96.20;;;;;;5114498;27;20230;-65
2023/01/04 01:41:08;;;;;;;4.55;3.42;;;5.20;96.50;;;;;;5114045;28;20587;-64
2023/01/04 01:43:52;;;;;;;6.10;4.03;;;5.20;96.30;;;;;;5114412;28;20651;-64
2023/01/04 01:46:25;;;;;;;5.75;3.78;;;5.20;96.40;;;;;;5113638;28;20216;-64
2023/01/04 01:48:56;;;;;;;6.43;3.75;;;5.20;96.50;;;;;;5113862;28;20192;-64
2023/01/04 01:51:24;;;;;;;4.80;3.70;;;5.20;95.90;;;;;;5113665;28;20567;-64
2023/01/04 01:53:58;;;;;;;6.85;3.70;;;5.10;95.50;;;;;;5113459;28;20212;-65
2023/01/04 01:56:27;;;;;;;3.90;2.85;;;5.00;95.40;;;;;;5114305;28;20203;-64
2023/01/04 01:58:58;;;;;;;4.03;2.80;;;4.90;94.40;;;;;;5113901;28;20229;-64
2023/01/04 02:01:26;;;;;;;4.28;2.50;;;4.80;94.60;;;;;;5113897;28;20200;-66
2023/01/04 02:03:53;;;;;;;4.47;2.45;;;4.80;94.70;;;;;;5113546;28;20184;-64
2023/01/04 02:06:25;;;;;;;6.97;3.45;;;4.70;94.70;;;;;;5113607;28;20189;-65
2023/01/04 02:08:53;;;;;;;4.85;3.00;;;4.70;94.80;;;;;;5113561;28;20245;-64
2023/01/04 02:11:20;;;;;;;4.75;2.85;;;4.50;95.20;;;;;;5113852;28;20211;-64
2023/01/04 02:16:58;;;;;;;4.30;2.95;;;4.40;95.10;;;;;;5113023;28;20215;-65
2023/01/04 02:19:42;;;;;;;4.25;3.00;;;4.40;95.40;;;;;;5093407;28;20193;-64
2023/01/04 02:22:54;;;;;;;4.35;2.92;;;4.40;95.60;;;;;;5095927;28;20280;-67
2023/01/04 02:25:50;;;;;;;4.55;3.22;;;4.40;95.90;;;;;;5030856;28;20210;-64
2023/01/04 02:28:31;;;;;;;3.58;2.80;;;4.40;96.00;;;;;;5041817;28;20268;-65
2023/01/04 02:31:16;;;;;;;4.47;3.40;;;4.50;96.10;;;;;;5096503;28;20669;-65
2023/01/04 02:33:51;;;;;;;3.85;2.88;;;4.50;95.90;;;;;;5113277;28;20311;-64
2023/01/04 02:36:25;;;;;;;4.22;3.00;;;4.50;95.80;;;;;;5112606;28;20254;-64
2023/01/04 02:39:12;;;;;;;4.10;2.30;;;4.50;95.60;;;;;;5113376;28;20226;-65
2023/01/04 02:41:46;;;;;;;3.45;2.40;;;4.50;95.50;;;;;;5113090;28;20716;-65
2023/01/04 02:47:06;;;;;;;4.57;2.60;;;4.40;95.10;;;;;;5112948;28;20273;-64
2023/01/04 02:52:18;;;;;;;3.03;1.80;;;4.30;94.40;;;;;;5112965;28;20199;-64
2023/01/04 02:54:48;;;;;;;3.50;1.80;;;4.30;94.50;;;;;;5112919;28;20224;-64
2023/01/04 02:57:31;;;;;;;3.30;2.38;;;4.30;94.60;;;;;;5111934;28;20275;-65
2023/01/04 03:00:17;;;;;;;3.67;2.20;;;4.30;94.80;;;;;;5113118;28;20196;-65
2023/01/04 03:06:17;;;;;;;3.25;1.90;;;4.30;94.80;;;;;;5099716;28;20583;-65
2023/01/04 03:08:55;;;;;;;3.17;1.70;;;4.30;94.80;;;;;;5112906;28;20184;-64
2023/01/04 03:14:12;;;;;;;3.25;2.10;;;4.30;94.80;;;;;;5112876;28;20812;-65
2023/01/04 03:16:42;;;;;;;3.05;2.30;;;4.20;95.00;;;;;;5112676;28;20184;-64
2023/01/04 03:19:12;;;;;;;4.53;2.95;;;4.20;95.30;;;;;;5113043;28;20188;-65
2023/01/04 03:21:44;;;;;;;3.38;1.80;;;4.20;95.30;;;;;;5112587;28;20287;-65
2023/01/04 03:35:41;;;;;;;4.43;2.80;;;3.80;97.30;;;;;;5096740;28;20265;-64
2023/01/04 03:49:40;;;;;;;3.80;2.70;;;4.00;96.10;;;;;;5112807;28;20192;-64
2023/01/04 03:52:12;;;;;;;2.50;1.83;;;4.00;95.50;;;;;;5112208;28;20945;-64
2023/01/04 03:54:42;;;;;;;2.78;2.00;;;4.00;94.70;;;;;;5111778;28;20215;-65
2023/01/04 03:57:11;;;;;;;2.60;1.60;;;3.90;94.60;;;;;;5112468;28;20589;-64
2023/01/04 03:59:44;;;;;;;2.90;1.95;;;3.90;94.10;;;;;;5111668;28;20707;-65
2023/01/04 04:02:12;;;;;;;4.43;2.20;;;3.90;94.20;;;;;;5112598;28;20189;-64
2023/01/04 04:10:10;;;;;;;4.20;1.65;;;3.70;94.50;;;;;;5112259;28;20202;-64
2023/01/04 04:12:38;;;;;;;3.47;2.35;;;3.70;94.70;;;;;;5112630;28;20192;-64
2023/01/04 04:15:06;;;;;;;3.10;2.10;;;3.60;94.60;;;;;;5112085;28;20284;-64
2023/01/04 04:17:33;;;;;;;3.10;2.40;;;3.50;94.20;;;;;;5112497;28;20185;-64
2023/01/04 04:20:00;;;;;;;5.43;2.83;;;3.50;94.50;;;;;;5112370;28;20536;-64
2023/01/04 04:22:28;;;;;;;4.90;2.55;;;3.50;94.70;;;;;;5112386;28;20224;-65
2023/01/04 04:24:57;;;;;;;4.70;2.00;;;3.50;95.10;;;;;;5111834;28;20196;-63
2023/01/04 04:27:24;;;;;;;3.10;2.00;;;3.40;95.50;;;;;;5112149;28;20242;-64
2023/01/04 04:29:51;;;;;;;3.88;2.40;;;3.40;95.20;;;;;;5112244;28;20196;-64
2023/01/04 04:32:19;;;;;;;5.20;2.45;;;3.30;95.40;;;;;;5111751;28;20234;-64
2023/01/04 04:34:46;;;;;;;3.63;2.08;;;3.20;95.80;;;;;;5111876;28;20686;-64
2023/01/04 04:37:13;;;;;;;3.78;2.58;;;3.20;96.40;;;;;;5111676;28;20192;-64
2023/01/04 04:39:41;;;;;;;3.33;2.30;;;3.10;96.90;;;;;;5112718;28;20238;-65
2023/01/04 04:42:08;;;;;;;3.20;2.05;;;3.20;96.80;;;;;;5115292;28;20182;-64
2023/01/04 04:44:35;;;;;;;2.50;1.70;;;3.10;96.90;;;;;;5115923;28;20639;-64
2023/01/04 04:47:02;;;;;;;2.25;1.38;;;3.10;97.30;;;;;;5115651;28;20249;-64
2023/01/04 04:49:30;;;;;;;3.10;1.42;;;3.10;97.60;;;;;;5115811;28;20571;-63
2023/01/04 04:51:57;;;;;;;3.83;2.22;;;3.10;97.70;;;;;;5114989;28;20659;-64
2023/01/04 04:54:24;;;;;;;3.85;2.15;;;3.10;98.10;;;;;;5115447;28;20220;-65
2023/01/04 04:56:52;;;;;;;4.43;2.80;;;3.20;98.30;;;;;;5115286;28;20216;-64
2023/01/04 04:59:19;;;;;;;3.30;2.30;;;3.30;98.20;;;;;;5113063;28;20680;-64
2023/01/04 05:01:46;;;;;;;4.10;2.33;;;3.30;98.00;;;;;;5115162;28;20223;-64
2023/01/04 05:04:18;;;;;;;7.15;4.32;;;3.30;97.90;;;;;;5115629;28;20492;-64
2023/01/04 05:06:47;;;;;;;4.38;2.60;;;3.30;97.70;;;;;;5114881;28;20180;-64
2023/01/04 05:09:14;;;;;;;3.95;2.85;;;3.40;97.60;;;;;;5115438;28;20237;-64
2023/01/04 05:14:28;;;;;;;3.28;2.67;;;3.40;96.70;;;;;;5115416;28;20680;-65
2023/01/04 05:16:55;;;;;;;6.63;2.30;;;3.40;96.30;;;;;;5115029;28;20199;-64
2023/01/04 05:19:22;;;;;;;3.78;2.72;;;3.30;95.80;;;;;;5115210;28;20188;-64
2023/01/04 05:21:49;;;;;;;4.55;2.38;;;3.30;95.30;;;;;;5114520;28;20192;-64
2023/01/04 05:24:16;;;;;;;5.00;2.50;;;3.20;95.30;;;;;;5114804;28;20189;-64
2023/01/04 05:26:43;;;;;;;3.28;2.15;;;3.10;95.80;;;;;;5115329;28;20241;-64
2023/01/04 05:30:49;;;;;;;3.80;2.40;;;3.10;95.70;;;;;;5114584;28;20233;-64
2023/01/04 05:31:57;;;;;;;3.50;2.17;;;3.00;96.20;;;;;;5115018;28;20196;-64
2023/01/04 05:34:25;;;;;;;4.65;2.40;;;2.90;96.40;;;;;;5114371;28;20212;-64
2023/01/04 05:36:52;;;;;;;3.05;2.40;;;3.00;96.20;;;;;;5114858;28;20220;-64
2023/01/04 05:39:19;;;;;;;5.85;3.55;;;2.90;95.70;;;;;;5113861;28;20249;-64
2023/01/04 05:44:30;;;;;;;4.63;3.00;;;2.90;95.60;;;;;;5114873;28;20213;-64
2023/01/04 05:46:59;;;;;;;3.63;2.35;;;2.90;95.90;;;;;;5114416;28;20665;-63
2023/01/04 05:49:26;;;;;;;4.50;2.40;;;2.90;96.30;;;;;;5114575;28;20193;-64
2023/01/04 05:51:53;;;;;;;4.63;2.70;;;2.80;96.80;;;;;;5112958;28;20595;-64
2023/01/04 05:54:20;;;;;;;6.13;4.00;;;2.70;97.20;;;;;;5114564;28;20234;-64
2023/01/04 05:56:48;;;;;;;6.38;3.47;;;2.70;97.10;;;;;;5114188;28;20184;-64
2023/01/04 05:59:15;;;;;;;5.75;2.80;;;2.70;97.50;;;;;;5114453;28;20188;-64
2023/01/04 06:01:42;;;;;;;4.05;2.80;;;2.70;97.60;;;;;;5114401;28;20245;-64
2023/01/04 06:04:11;;;;;;;4.88;2.75;;;2.70;97.90;;;;;;5114385;27;20184;-64
2023/01/04 06:06:38;;;;;;;3.75;2.67;;;2.60;98.00;;;;;;5113780;28;20184;-65
2023/01/04 06:09:05;;;;;;;5.05;3.00;;;2.70;98.20;;;;;;5113684;28;20184;-64
2023/01/04 06:11:32;;;;;;;3.95;2.22;;;2.70;98.30;;;;;;5114256;28;20188;-64
2023/01/04 06:13:59;;;;;;;3.70;2.35;;;2.70;98.30;;;;;;5113588;28;20185;-64
2023/01/04 06:16:26;;;;;;;3.10;2.00;;;2.70;98.20;;;;;;5114203;28;20585;-64
2023/01/04 06:18:53;;;;;;;3.58;2.55;;;2.80;98.20;;;;;;5113466;28;20191;-64
2023/01/04 06:21:24;;;;;;;2.83;1.70;;;2.80;97.80;;;;;;5113986;28;20188;-64
2023/01/04 06:23:51;;;;;;;3.95;2.50;;;2.80;97.50;;;;;;5113487;28;20275;-64
2023/01/04 06:26:18;;;;;;;2.90;1.73;;;2.80;97.20;;;;;;5111566;28;20192;-64
2023/01/04 06:28:45;;;;;;;3.70;2.58;;;2.80;97.30;;;;;;5112865;28;20650;-64
2023/01/04 06:31:13;;;;;;;3.35;2.00;;;2.90;97.40;;;;;;5113551;28;20184;-64
2023/01/04 06:33:40;;;;;;;2.95;1.58;;;2.90;97.30;;;;;;5114029;28;20257;-64
2023/01/04 06:36:08;;;;;;;3.85;1.55;;;2.80;96.90;;;;;;5112891;28;20281;-67
2023/01/04 06:38:37;;;;;;;3.15;1.77;;;2.80;96.70;;;;;;5113804;28;20192;-64
2023/01/04 06:41:04;;;;;;;4.78;3.10;;;2.80;96.90;;;;;;5113210;28;20543;-64
2023/01/04 06:43:31;;;;;;;4.80;3.25;;;2.80;97.10;;;;;;5113774;28;20196;-64
2023/01/04 06:46:00;;;;;;;3.20;1.92;;;2.80;97.40;;;;;;5113036;28;20188;-64
2023/01/04 06:48:27;;;;;;;2.50;1.45;;;2.80;97.50;;;;;;5113446;28;20195;-65
2023/01/04 06:50:54;;;;;;;3.20;1.90;;;2.70;97.70;;;;;;5113195;28;20192;-65
2023/01/04 06:53:21;;;;;;;3.53;2.28;;;2.70;98.00;;;;;;5110773;28;20188;-64
2023/01/04 06:55:50;;;;;;;3.50;2.50;;;2.70;98.10;;;;;;5112061;28;20308;-63
2023/01/04 06:58:17;;;;;;;2.97;1.77;;;2.60;98.20;;;;;;5112984;28;20184;-64
2023/01/04 07:00:45;;;;;;;2.75;1.70;;;2.60;98.10;;;;;;5113130;28;20192;-65
2023/01/04 07:03:12;;;;;;;3.95;2.35;;;2.70;97.40;;;;;;5112339;28;20553;-64
2023/01/04 07:05:39;;;;;;;3.63;1.80;;;2.70;97.50;;;;;;5112975;28;20530;-64
2023/01/04 07:08:06;;;;;;;5.15;2.17;;;2.70;97.40;;;;;;5113053;28;20184;-64
2023/01/04 07:10:33;;;;;;;4.65;2.25;;;2.70;96.90;;;;;;5113044;28;20216;-64
2023/01/04 07:13:02;;;;;;;5.70;3.20;;;2.60;97.20;;;;;;5113361;28;20231;-64
2023/01/04 07:15:29;;;;;;;3.10;2.22;;;2.60;97.60;;;;;;5112420;28;20216;-64
2023/01/04 07:17:56;;;;;;;5.60;2.72;;;2.70;97.80;;;;;;5112975;28;20199;-64
2023/01/04 07:20:23;;;;;;;4.72;2.33;;;2.70;97.90;;;;;;5112681;28;20181;-64
2023/01/04 07:22:50;;;;;;;3.70;2.47;;;2.80;98.10;;;;;;5112935;28;20192;-64
2023/01/04 07:25:18;;;;;;;15.10;8.13;;;2.90;97.90;;;;;;5112759;28;20580;-64
2023/01/04 07:27:45;;;;;;;9.80;5.53;;;3.00;98.00;;;;;;5112926;28;20670;-65
2023/01/04 07:30:14;;;;;;;6.72;3.92;;;3.10;98.40;;;;;;5112758;28;20271;-66
2023/01/04 07:32:41;;;;;;;3.95;2.88;;;3.30;98.70;;;;;;5113306;28;20184;-66
2023/01/04 07:35:09;;;;;;;4.65;2.60;;;3.60;97.60;;;;;;5112576;28;20575;-63
2023/01/04 07:37:36;;;;;;;5.07;3.00;;;3.90;97.30;;;;;;5112239;28;20181;-64
2023/01/04 07:40:04;;;;;;;3.95;2.50;;;4.20;97.10;;;;;;5113081;28;20204;-64
2023/01/04 07:42:31;;;;;;;3.92;2.45;;;4.60;95.80;;;;;;5112598;28;20187;-65
2023/01/04 07:44:58;;;;;;;6.97;4.35;;;5.00;94.30;;;;;;5112800;28;20590;-64
2023/01/04 07:47:27;;;;;;;5.55;3.00;;;5.30;94.00;;;;;;5112362;28;20639;-65
2023/01/04 07:49:55;;;;;;;8.75;6.78;;;5.50;93.40;;;;;;5112741;28;20192;-64
2023/01/04 07:52:22;;;;;;;6.40;4.93;;;5.70;92.80;;;;;;5112225;28;20522;-64
2023/01/04 07:54:49;;;;;;;5.55;4.80;;;5.90;92.50;;;;;;5112663;28;20658;-65
2023/01/04 07:57:16;;;;;;;5.82;5.30;;;6.00;91.80;;;;;;5112504;28;20249;-64
2023/01/04 07:59:43;;;;;;;5.45;4.95;;;6.20;91.70;;;;;;5112768;28;20189;-66
2023/01/04 08:02:11;;;;;;;3.95;3.50;;;6.40;91.60;;;;;;5112347;28;20192;-64
2023/01/04 08:04:40;;;;;;;5.63;3.50;;;6.50;90.90;;;;;;5112541;28;20551;-65
2023/01/04 08:07:07;;;;;;;4.10;3.53;;;6.50;90.10;;;;;;5112345;28;20188;-64
2023/01/04 08:09:34;;;;;;;7.45;5.95;;;6.50;90.10;;;;;;5112315;28;20638;-65
2023/01/04 08:12:01;;;;;;;7.70;4.72;;;6.50;90.00;;;;;;5112671;28;20253;-64
2023/01/04 08:14:28;;;;;;;6.28;4.22;;;6.30;88.30;;;;;;5112502;28;20196;-64
2023/01/04 08:16:55;;;;;;;7.32;5.82;;;6.20;89.10;;;;;;5116463;28;20643;-64
2023/01/04 08:19:22;;;;;;;8.70;4.78;;;6.10;90.10;;;;;;5115722;28;20192;-64
2023/01/04 08:21:51;;;;;;;6.43;4.00;;;6.00;90.00;;;;;;5116316;28;20189;-64
2023/01/04 08:24:19;;;;;;;11.85;8.10;;;5.80;90.20;;;;;;5116130;28;20242;-65
2023/01/04 08:26:47;;;;;;;10.32;6.88;;;5.80;90.60;;;;;;5116359;28;20184;-65
2023/01/04 08:29:15;;;;;;;9.68;6.38;;;5.70;90.70;;;;;;5115994;28;20189;-65
2023/01/04 08:31:42;;;;;;;9.55;7.65;;;5.60;91.80;;;;;;5115981;28;20189;-65
2023/01/04 08:34:10;;;;;;;5.90;4.55;;;5.60;92.80;;;;;;5112489;28;20188;-65
2023/01/04 08:36:54;;;;;;;5.22;3.97;;;5.70;93.00;;;;;;5110949;28;20251;-65
2023/01/04 08:39:22;;;;;;;5.72;4.53;;;5.90;92.60;;;;;;5113868;28;20607;-65
2023/01/04 08:41:51;;;;;;;5.80;3.35;;;6.10;93.00;;;;;;5110782;28;20192;-65
2023/01/04 08:44:19;;;;;;;6.80;4.60;;;6.50;92.80;;;;;;5114461;28;20187;-65
2023/01/04 08:46:46;;;;;;;9.98;5.43;;;6.90;92.50;;;;;;5114453;28;20184;-66
2023/01/04 08:49:13;;;;;;;4.85;3.40;;;7.40;91.60;;;;;;5110524;28;20249;-64
2023/01/04 08:51:40;;;;;;;4.45;3.00;;;7.90;90.60;;;;;;5114177;28;20199;-65
2023/01/04 08:54:07;;;;;;;3.92;2.58;;;8.40;91.00;;;;;;5114577;28;20275;-64
2023/01/04 08:56:36;;;;;;;3.55;2.08;;;8.40;90.00;;;;;;5114173;27;20294;-64
2023/01/04 08:59:04;;;;;;;4.47;1.60;;;8.40;90.00;;;;;;5114728;28;20598;-64
2023/01/04 09:01:32;;;;;;;3.25;2.00;;;8.10;88.90;;;;;;5114905;28;20196;-64
2023/01/04 09:03:59;;;;;;;2.70;1.83;;;7.90;88.30;;;;;;5114315;28;20657;-64
2023/01/04 09:06:26;;;;;;;3.00;1.95;;;7.70;90.00;;;;;;5113778;28;20197;-65
2023/01/04 09:08:55;;;;;;;3.28;2.13;;;7.70;90.70;;;;;;5108960;28;20587;-65
2023/01/04 09:11:24;;;;;;;7.00;4.32;;;7.80;90.90;;;;;;5113699;28;20750;-65
2023/01/04 09:14:00;;;;;;;7.53;4.57;;;8.00;91.30;;;;;;5111701;28;20185;-65
2023/01/04 09:16:27;;;;;;;3.10;2.00;;;8.10;91.10;;;;;;5112247;28;20223;-64
2023/01/04 09:18:55;;;;;;;3.40;2.00;;;8.30;90.20;;;;;;5112621;27;20181;-64
2023/01/04 09:21:22;;;;;;;2.47;1.40;;;8.50;90.90;;;;;;5113711;28;20547;-66
2023/01/04 09:23:49;;;;;;;4.20;2.05;;;8.80;89.30;;;;;;5111541;28;20200;-65
2023/01/04 09:26:20;;;;;;;4.15;2.50;;;9.10;90.50;;;;;;5113171;28;20194;-65
2023/01/04 09:28:47;;;;;;;4.65;2.58;;;9.50;91.10;;;;;;5113830;28;20191;-65
2023/01/04 09:31:17;;;;;;;4.95;3.35;;;9.80;87.10;;;;;;5112821;28;20565;-66
2023/01/04 09:33:44;;;;;;;4.40;2.50;;;10.00;84.20;;;;;;5113356;28;20658;-65
2023/01/04 09:36:14;;;;;;;3.35;2.30;;;10.10;82.50;;;;;;5113653;28;20235;-66
2023/01/04 09:38:41;;;;;;;3.65;2.33;;;10.10;82.40;;;;;;5113855;28;20520;-65
2023/01/04 09:41:16;;;;;;;3.70;2.60;;;10.00;82.00;;;;;;5112880;28;20195;-65
2023/01/04 09:43:46;;;;;;;3.65;2.22;;;9.90;81.80;;;;;;5113733;28;20645;-65
2023/01/04 09:46:24;;;;;;;2.88;1.58;;;9.70;82.90;;;;;;5113508;28;20618;-65
2023/01/04 09:48:54;;;;;;;2.65;1.58;;;9.60;83.30;;;;;;5110741;28;20207;-64
2023/01/04 09:51:23;;;;;;;3.38;1.60;;;9.50;83.30;;;;;;5113060;28;20217;-65
2023/01/04 09:53:55;;;;;;;2.10;1.15;;;9.40;84.60;;;;;;5113154;28;20213;-64
2023/01/04 09:56:26;;;;;;;3.08;1.40;;;9.50;83.50;;;;;;5113431;28;20692;-66
2023/01/04 09:58:54;;;;;;;3.55;1.67;;;9.40;83.90;;;;;;5109165;28;20222;-67
2023/01/04 10:01:25;;;;;;;2.40;1.70;;;9.40;85.40;;;;;;5111967;28;20215;-65
2023/01/04 10:03:59;;;;;;;2.90;1.13;;;9.40;85.40;;;;;;5110423;28;21072;-65
2023/01/04 10:06:26;;;;;;;2.70;1.30;;;9.50;84.40;;;;;;5111833;28;20199;-66
2023/01/04 10:08:55;;;;;;;2.53;1.48;;;9.40;84.00;;;;;;5111926;28;20223;-64
2023/01/04 10:11:41;;;;;;;2.40;1.42;;;9.40;84.70;;;;;;5112171;27;20622;-67
2023/01/04 10:14:28;;;;;;;2.40;1.30;;;9.40;85.60;;;;;;5112586;28;20193;-66
2023/01/04 10:17:11;;;;;;;3.75;2.20;;;9.30;86.10;;;;;;5111963;28;20261;-65
2023/01/04 10:20:03;;;;;;;3.10;1.27;;;9.30;86.20;;;;;;5112251;27;20214;-65
2023/01/04 10:22:40;;;;;;;2.50;1.63;;;9.30;86.00;;;;;;5112060;28;20190;-65
2023/01/04 10:25:22;;;;;;;2.75;1.25;;;9.40;86.10;;;;;;5108383;28;20191;-65
2023/01/04 10:27:59;;;;;;;2.00;1.10;;;9.60;85.10;;;;;;5111235;28;20194;-66
2023/01/04 10:30:32;;;;;;;2.15;1.30;;;9.70;83.30;;;;;;5112060;28;20281;-65
2023/01/04 10:33:11;;;;;;;2.58;1.23;;;9.80;82.20;;;;;;5110416;28;20199;-65
2023/01/04 10:35:39;;;;;;;4.25;1.40;;;9.80;82.10;;;;;;5111267;27;20248;-65
2023/01/04 10:38:15;;;;;;;2.10;0.95;;;9.90;82.60;;;;;;5110609;28;20237;-66
2023/01/04 10:40:43;;;;;;;5.07;1.25;;;9.90;82.80;;;;;;5108531;28;20634;-66
2023/01/04 10:43:18;;;;;;;2.05;1.05;;;10.00;80.80;;;;;;5111967;28;20273;-65
2023/01/04 10:45:55;;;;;;;1.70;0.80;;;10.00;80.40;;;;;;5111536;28;20286;-66
2023/01/04 10:48:32;;;;;;;2.40;0.95;;;10.00;80.90;;;;;;5110029;28;20565;-65
2023/01/04 10:51:01;;;;;;;1.80;1.00;;;10.00;80.90;;;;;;5110431;28;20198;-65
2023/01/04 10:53:33;;;;;;;2.13;1.00;;;10.00;81.30;;;;;;5110987;28;20228;-64
2023/01/04 10:56:04;;;;;;;2.33;1.20;;;10.00;80.90;;;;;;5110583;28;20279;-64
2023/01/04 10:58:38;;;;;;;2.53;1.45;;;10.00;81.50;;;;;;5106876;28;20203;-65
2023/01/04 11:01:09;;;;;;;2.50;1.20;;;10.00;81.50;;;;;;5112142;28;20226;-65
2023/01/04 11:03:42;;;;;;;2.42;1.65;;;10.00;82.10;;;;;;5111118;28;20231;-66
2023/01/04 11:06:16;;;;;;;2.40;1.40;;;10.00;81.30;;;;;;5111857;28;20195;-66
2023/01/04 11:08:47;;;;;;;2.53;1.30;;;10.00;80.40;;;;;;5111946;28;20191;-65
2023/01/04 11:11:20;;;;;;;3.10;1.50;;;10.00;77.50;;;;;;5111700;28;20286;-65
2023/01/04 11:13:47;;;;;;;3.28;1.60;;;10.00;76.20;;;;;;5111800;28;20215;-66
2023/01/04 11:16:14;;;;;;;2.00;1.08;;;10.00;75.00;;;;;;5107697;28;20303;-66
2023/01/04 11:18:46;;;;;;;2.60;1.30;;;10.00;71.10;;;;;;5111014;28;20186;-65
2023/01/04 11:21:16;;;;;;;2.05;1.00;;;10.00;69.70;;;;;;5110681;28;20278;-66
2023/01/04 11:23:44;;;;;;;2.05;1.10;;;10.00;68.50;;;;;;5111444;28;20187;-65
2023/01/04 11:26:15;;;;;;;6.55;1.00;;;10.00;68.40;;;;;;5111095;28;20282;-65
2023/01/04 11:28:51;;;;;;;2.55;1.05;;;10.10;68.10;;;;;;5110967;28;20193;-65
2023/01/04 11:31:26;;;;;;;2.88;0.90;;;10.10;65.50;;;;;;5109889;28;20198;-66
2023/01/04 11:33:57;;;;;;;1.60;0.70;;;10.10;64.20;;;;;;5107878;28;20244;-65
2023/01/04 11:36:38;;;;;;;2.20;1.10;;;10.10;62.80;;;;;;5110538;28;20223;-64
2023/01/04 11:39:07;;;;;;;1.80;0.88;;;10.10;61.70;;;;;;5109651;28;20203;-65
2023/01/04 11:41:35;;;;;;;2.80;0.80;;;10.20;61.50;;;;;;5110821;28;20214;-64
2023/01/04 11:44:04;;;;;;;1.80;0.80;;;10.20;61.40;;;;;;5110503;28;20180;-65
2023/01/04 11:46:32;;;;;;;2.53;1.17;;;10.30;60.10;;;;;;5110298;28;20184;-65
2023/01/04 11:49:01;;;;;;;1.95;0.98;;;10.30;60.10;;;;;;5111616;28;20195;-66
2023/01/04 11:51:38;;;;;;;2.05;1.10;;;10.40;59.00;;;;;;5114358;28;20198;-65
2023/01/04 11:54:17;;;;;;;1.80;0.80;;;10.40;57.50;;;;;;5114773;28;20194;-62
2023/01/04 11:56:59;;;;;;;2.60;0.90;;;10.40;58.20;;;;;;5114861;28;20215;-62
2023/01/04 11:59:27;;;;;;;2.33;1.10;;;10.50;57.90;;;;;;5114942;28;20278;-63
2023/01/04 12:02:35;;;;;;;2.15;0.77;;;10.60;58.00;;;;;;5114641;28;20202;-63
2023/01/04 12:05:13;;;;;;;1.50;0.70;;;10.70;57.30;;;;;;5111485;28;20203;-65
2023/01/04 12:07:41;;;;;;;2.97;1.65;;;10.80;58.10;;;;;;5114517;28;20188;-65
2023/01/04 12:10:22;;;;;;;4.60;1.40;;;10.80;55.30;;;;;;5114328;27;20274;-65
2023/01/04 12:12:49;;;;;;;2.22;1.00;;;10.80;55.80;;;;;;5114436;28;20188;-65
2023/01/04 12:15:25;;;;;;;3.25;1.48;;;10.70;53.40;;;;;;5110587;28;20188;-65
2023/01/04 12:17:56;;;;;;;2.65;1.38;;;10.70;54.70;;;;;;5114857;28;20223;-64
2023/01/04 12:20:28;;;;;;;2.15;1.25;;;10.70;53.50;;;;;;5114315;28;20192;-65
2023/01/04 12:22:56;;;;;;;3.33;1.20;;;10.80;54.60;;;;;;5114796;28;20206;-64
2023/01/04 12:25:32;;;;;;;2.70;1.30;;;10.90;55.80;;;;;;5114919;28;20195;-65
2023/01/04 12:27:59;;;;;;;3.22;1.60;;;11.00;56.60;;;;;;5110719;28;20188;-65
2023/01/04 12:30:40;;;;;;;3.00;1.60;;;11.00;57.50;;;;;;5114469;27;20658;-65
2023/01/04 12:33:39;;;;;;;1.90;1.13;;;11.10;57.30;;;;;;5110181;28;20260;-65
2023/01/04 12:36:09;;;;;;;2.45;1.20;;;11.20;57.00;;;;;;5113454;28;20223;-65
2023/01/04 12:39:06;;;;;;;3.40;1.20;;;11.30;57.90;;;;;;5108198;28;20249;-65
2023/01/04 12:42:18;;;;;;;1.90;0.90;;;11.20;56.60;;;;;;5111948;28;20267;-65
2023/01/04 12:45:02;;;;;;;2.83;1.27;;;11.20;57.00;;;;;;5109493;28;20529;-65
2023/01/04 12:50:29;;;;;;;2.60;1.45;;;11.20;55.70;;;;;;5112763;28;20200;-65
2023/01/04 12:53:02;;;;;;;2.53;1.13;;;11.10;56.70;;;;;;5112976;28;20199;-65
2023/01/04 12:55:52;;;;;;;3.30;1.57;;;11.10;58.90;;;;;;5112412;28;20223;-65
2023/01/04 12:58:57;;;;;;;3.00;1.50;;;11.00;59.40;;;;;;5108492;27;20481;-65
2023/01/04 13:01:29;;;;;;;3.35;1.50;;;11.00;61.50;;;;;;5099344;28;20192;-65
2023/01/04 13:03:59;;;;;;;3.65;1.92;;;11.00;60.40;;;;;;5113449;28;20231;-65
2023/01/04 13:06:32;;;;;;;3.70;1.92;;;10.90;61.50;;;;;;5113441;28;20202;-65
2023/01/04 13:09:02;;;;;;;3.33;2.10;;;10.90;62.10;;;;;;5110218;28;20199;-65
2023/01/04 13:12:06;;;;;;;4.80;2.03;;;11.00;63.80;;;;;;5113711;28;20558;-65
2023/01/04 13:14:39;;;;;;;3.85;2.38;;;11.00;66.60;;;;;;5113117;27;20192;-66
2023/01/04 13:17:17;;;;;;;3.40;2.22;;;11.00;67.30;;;;;;5110055;28;20547;-65
2023/01/04 13:19:45;;;;;;;3.60;2.33;;;11.00;65.10;;;;;;5113110;28;20693;-66
2023/01/04 13:22:22;;;;;;;2.97;1.90;;;11.10;66.40;;;;;;5113546;28;20199;-65
2023/01/04 13:24:51;;;;;;;3.35;2.03;;;11.10;66.70;;;;;;5112733;28;20195;-65
2023/01/04 13:27:20;;;;;;;5.10;3.10;;;11.10;67.00;;;;;;5111557;28;20243;-66
2023/01/04 13:29:48;;;;;;;5.40;2.95;;;11.20;66.20;;;;;;5113552;28;20278;-65
2023/01/04 13:32:22;;;;;;;2.70;1.80;;;11.20;66.10;;;;;;5113902;28;20608;-65
2023/01/04 13:34:54;;;;;;;6.63;1.80;;;11.30;63.40;;;;;;5113085;28;20192;-65
2023/01/04 13:37:31;;;;;;;3.35;1.50;;;11.20;61.90;;;;;;5113584;27;20273;-65
2023/01/04 13:40:27;;;;;;;2.30;1.45;;;11.20;64.40;;;;;;5112971;28;20240;-65
2023/01/04 13:43:10;;;;;;;3.90;1.40;;;11.10;60.60;;;;;;5113262;28;20192;-65
2023/01/04 13:45:49;;;;;;;1.90;0.85;;;11.20;60.60;;;;;;5113632;28;20849;-65
2023/01/04 13:48:29;;;;;;;7.03;3.60;;;11.10;52.80;;;;;;5113830;28;20249;-65
2023/01/04 13:51:01;;;;;;;5.30;2.63;;;11.30;56.40;;;;;;5111674;28;20191;-66
2023/01/04 13:53:30;;;;;;;3.10;1.10;;;11.40;56.40;;;;;;5109779;28;20224;-65
2023/01/04 13:56:00;;;;;;;2.13;0.95;;;11.50;51.00;;;;;;5112575;28;20192;-65
2023/01/04 13:58:29;;;;;;;1.87;0.70;;;11.60;48.70;;;;;;5111566;28;20408;-65
2023/01/04 14:01:00;;;;;;;2.10;1.23;;;11.80;49.80;;;;;;5110210;28;20461;-65
2023/01/04 14:03:32;;;;;;;2.20;1.00;;;11.90;49.80;;;;;;5110726;28;20924;-65
2023/01/04 14:06:17;;;;;;;1.80;0.73;;;11.90;48.30;;;;;;5110933;28;20937;-65
2023/01/04 14:08:50;;;;;;;2.53;0.90;;;12.00;48.00;;;;;;5109430;28;20462;-65